Time;durP1;ratioP1;P1;durP2;ratioP2;P2;SDS_P1;SDS_P2;PMS_P1;PMS_P2;Temp;Humidity;BMP_temperature;BMP_pressure;BME280_temperature;BME280_humidity;BME280_pressure;Samples;Min_cycle;Max_cycle;Signal;HPM_P1;HPM_P2
2024/01/24 00:01:33;;;;;;;3.78;1.05;;;9.90;97.50;;;;;;5094048;28;20035;-43
2024/01/24 00:03:59;;;;;;;1.90;0.75;;;9.80;97.50;;;;;;5094466;28;20024;-43
2024/01/24 00:06:26;;;;;;;2.88;1.00;;;9.80;97.60;;;;;;5093704;28;20027;-44
2024/01/24 00:08:52;;;;;;;2.75;1.15;;;9.80;97.60;;;;;;5095413;28;20095;-44
2024/01/24 00:11:17;;;;;;;2.22;0.90;;;9.80;97.60;;;;;;5094558;28;20182;-43
2024/01/24 00:13:43;;;;;;;4.05;1.02;;;9.80;97.60;;;;;;5093707;28;20024;-44
2024/01/24 00:16:08;;;;;;;3.15;1.00;;;9.80;97.70;;;;;;5094336;28;20030;-43
2024/01/24 00:18:34;;;;;;;1.60;0.80;;;9.80;97.70;;;;;;5093398;28;20032;-44
2024/01/24 00:21:00;;;;;;;1.92;0.85;;;9.80;97.70;;;;;;5093432;28;20035;-44
2024/01/24 00:23:26;;;;;;;2.25;0.88;;;9.70;98.00;;;;;;5094018;28;20020;-44
2024/01/24 00:25:52;;;;;;;2.50;0.85;;;9.70;97.70;;;;;;5093346;28;20081;-44
2024/01/24 00:28:18;;;;;;;2.63;0.75;;;9.70;97.80;;;;;;5093141;28;20099;-44
2024/01/24 00:30:44;;;;;;;2.22;0.98;;;9.70;97.80;;;;;;5093600;28;20431;-44
2024/01/24 00:33:10;;;;;;;3.60;1.05;;;9.70;97.80;;;;;;5093609;28;20028;-44
2024/01/24 00:35:36;;;;;;;1.48;0.77;;;9.70;97.90;;;;;;5093929;28;20028;-44
2024/01/24 00:38:02;;;;;;;2.28;0.80;;;9.70;97.90;;;;;;5092955;28;20146;-44
2024/01/24 00:40:27;;;;;;;4.88;1.00;;;9.70;97.90;;;;;;5092981;28;20024;-44
2024/01/24 00:42:53;;;;;;;2.95;0.98;;;9.70;97.90;;;;;;5092919;28;20039;-44
2024/01/24 00:45:19;;;;;;;3.17;1.10;;;9.70;97.90;;;;;;5092947;28;20035;-44
2024/01/24 00:47:44;;;;;;;2.00;0.80;;;9.60;97.90;;;;;;5093944;28;20062;-44
2024/01/24 00:50:10;;;;;;;2.03;1.00;;;9.60;97.90;;;;;;5093332;28;20128;-44
2024/01/24 00:52:36;;;;;;;1.92;0.65;;;9.60;98.00;;;;;;5092657;28;20020;-44
2024/01/24 00:55:01;;;;;;;2.20;0.80;;;9.60;98.00;;;;;;5092630;28;20058;-43
2024/01/24 00:57:27;;;;;;;2.67;0.90;;;9.60;98.00;;;;;;5092678;28;20016;-44
2024/01/24 00:59:53;;;;;;;1.92;0.70;;;9.60;98.00;;;;;;5092572;28;20453;-44
2024/01/24 01:02:20;;;;;;;1.83;0.90;;;9.60;98.10;;;;;;5092625;28;20024;-44
2024/01/24 01:04:45;;;;;;;2.45;0.73;;;9.60;98.10;;;;;;5092681;28;20051;-44
2024/01/24 01:07:11;;;;;;;1.67;0.77;;;9.60;98.10;;;;;;5108116;28;20070;-44
2024/01/24 01:09:37;;;;;;;1.83;0.70;;;9.60;98.10;;;;;;5092468;28;20032;-44
2024/01/24 01:12:03;;;;;;;2.42;0.80;;;9.60;98.10;;;;;;5092417;28;20020;-44
2024/01/24 01:14:28;;;;;;;2.30;0.88;;;9.50;98.10;;;;;;5092621;28;20027;-43
2024/01/24 01:16:54;;;;;;;1.60;0.70;;;9.50;98.10;;;;;;5092500;28;20020;-43
2024/01/24 01:19:20;;;;;;;3.22;0.80;;;9.50;98.20;;;;;;5092249;28;20024;-44
2024/01/24 01:21:45;;;;;;;3.33;0.80;;;9.50;98.20;;;;;;5093320;28;20528;-43
2024/01/24 01:24:11;;;;;;;3.47;0.80;;;9.50;98.20;;;;;;5092691;28;20036;-44
2024/01/24 01:26:37;;;;;;;2.45;0.88;;;9.50;98.20;;;;;;5092054;28;20394;-44
2024/01/24 01:29:02;;;;;;;3.85;0.80;;;9.50;98.20;;;;;;5092131;28;20027;-44
2024/01/24 01:31:28;;;;;;;2.55;0.90;;;9.50;98.20;;;;;;5092126;28;20028;-44
2024/01/24 01:33:54;;;;;;;3.35;0.70;;;9.50;98.30;;;;;;5092763;28;20474;-43
2024/01/24 01:36:20;;;;;;;2.95;0.93;;;9.50;98.30;;;;;;5093306;28;20024;-43
2024/01/24 01:38:45;;;;;;;2.35;0.85;;;9.50;98.30;;;;;;5091829;28;20106;-44
2024/01/24 01:41:11;;;;;;;2.60;0.80;;;9.50;98.30;;;;;;5091985;28;20129;-43
2024/01/24 01:43:37;;;;;;;1.60;0.80;;;9.50;98.30;;;;;;5091859;28;20051;-44
2024/01/24 01:46:10;;;;;;;2.38;0.70;;;9.50;98.30;;;;;;5091842;28;20482;-44
2024/01/24 01:48:37;;;;;;;2.22;0.60;;;9.50;98.40;;;;;;5091699;28;20103;-44
2024/01/24 01:51:03;;;;;;;2.47;0.85;;;9.50;98.40;;;;;;5092074;28;20024;-44
2024/01/24 01:53:29;;;;;;;1.67;0.80;;;9.40;98.40;;;;;;5091620;28;20111;-43
2024/01/24 01:55:55;;;;;;;3.00;0.80;;;9.40;98.40;;;;;;5091817;28;20023;-44
2024/01/24 01:58:21;;;;;;;1.80;0.80;;;9.40;98.40;;;;;;5091493;28;20103;-43
2024/01/24 02:00:49;;;;;;;3.78;1.05;;;9.40;98.40;;;;;;5091402;28;20039;-44
2024/01/24 02:03:15;;;;;;;2.47;0.88;;;9.40;98.40;;;;;;5091714;28;20060;-44
2024/01/24 02:05:42;;;;;;;1.77;0.60;;;9.40;98.50;;;;;;5090243;28;20039;-44
2024/01/24 02:08:07;;;;;;;2.33;1.02;;;9.40;98.50;;;;;;5091406;28;20028;-44
2024/01/24 02:10:34;;;;;;;2.75;0.70;;;9.40;98.50;;;;;;5091407;28;20047;-44
2024/01/24 02:13:00;;;;;;;2.42;0.70;;;9.40;98.50;;;;;;5091836;28;20027;-45
2024/01/24 02:15:27;;;;;;;2.13;0.70;;;9.40;98.50;;;;;;5091833;28;20124;-44
2024/01/24 02:17:53;;;;;;;2.42;0.90;;;9.40;98.50;;;;;;5092677;28;20020;-44
2024/01/24 02:20:18;;;;;;;2.72;0.90;;;9.40;98.50;;;;;;5091218;28;20039;-44
2024/01/24 02:22:44;;;;;;;0.82;0.50;;;9.40;98.60;;;;;;5091416;28;20028;-44
2024/01/24 02:25:10;;;;;;;1.90;0.70;;;9.30;98.60;;;;;;5091704;28;20579;-44
2024/01/24 02:27:35;;;;;;;2.53;1.00;;;9.40;98.60;;;;;;5091176;28;20108;-44
2024/01/24 02:30:01;;;;;;;2.92;0.70;;;9.30;98.60;;;;;;5091121;28;20028;-44
2024/01/24 02:32:27;;;;;;;2.67;1.00;;;9.30;98.60;;;;;;5091224;28;20020;-43
2024/01/24 02:34:52;;;;;;;1.80;0.80;;;9.30;98.60;;;;;;5092548;28;20020;-44
2024/01/24 02:37:21;;;;;;;2.35;0.75;;;9.30;98.60;;;;;;5091402;28;20539;-44
2024/01/24 02:39:47;;;;;;;2.55;0.90;;;9.30;98.60;;;;;;5091012;28;20032;-44
2024/01/24 02:42:13;;;;;;;2.08;0.70;;;9.30;98.70;;;;;;5091171;28;20020;-44
2024/01/24 02:44:39;;;;;;;2.00;0.60;;;9.30;98.70;;;;;;5091130;28;20057;-43
2024/01/24 02:47:04;;;;;;;3.08;1.02;;;9.30;98.70;;;;;;5091735;28;20501;-44
2024/01/24 02:49:30;;;;;;;1.73;0.75;;;9.30;98.70;;;;;;5091948;28;20042;-44
2024/01/24 02:52:01;;;;;;;2.00;0.90;;;9.30;98.70;;;;;;5091651;28;20070;-44
2024/01/24 02:54:28;;;;;;;1.80;0.70;;;9.30;98.70;;;;;;5091657;28;20043;-44
2024/01/24 02:56:53;;;;;;;2.00;0.70;;;9.30;98.70;;;;;;5091250;28;20529;-44
2024/01/24 02:59:19;;;;;;;1.73;1.00;;;9.30;98.70;;;;;;5090998;28;20020;-43
2024/01/24 03:01:45;;;;;;;2.50;0.85;;;9.30;98.80;;;;;;5090859;28;20016;-44
2024/01/24 03:04:10;;;;;;;2.88;0.70;;;9.30;98.80;;;;;;5090882;28;20036;-44
2024/01/24 03:06:36;;;;;;;2.85;0.70;;;9.30;98.80;;;;;;5090779;28;20031;-44
2024/01/24 03:09:02;;;;;;;1.48;0.60;;;9.30;98.80;;;;;;5090759;28;20554;-44
2024/01/24 03:11:27;;;;;;;2.33;0.70;;;9.30;98.80;;;;;;5090922;28;20025;-44
2024/01/24 03:13:53;;;;;;;1.13;0.70;;;9.30;98.80;;;;;;5090905;28;20017;-44
2024/01/24 03:16:19;;;;;;;1.77;0.70;;;9.30;98.90;;;;;;5090757;28;20012;-43
2024/01/24 03:18:45;;;;;;;1.30;0.50;;;9.30;98.90;;;;;;5090814;28;20027;-44
2024/01/24 03:21:15;;;;;;;1.77;0.65;;;9.30;98.90;;;;;;5091228;28;20024;-43
2024/01/24 03:23:42;;;;;;;2.53;0.70;;;9.30;98.90;;;;;;5090744;28;20351;-45
2024/01/24 03:26:07;;;;;;;1.77;0.60;;;9.30;98.90;;;;;;5090833;28;20112;-44
2024/01/24 03:28:34;;;;;;;1.27;0.52;;;9.30;98.90;;;;;;5090702;28;20114;-43
2024/01/24 03:31:01;;;;;;;1.73;0.73;;;9.30;98.90;;;;;;5090658;28;20033;-44
2024/01/24 03:33:26;;;;;;;2.83;0.80;;;9.30;98.90;;;;;;5091936;28;20028;-43
2024/01/24 03:35:52;;;;;;;2.17;0.73;;;9.20;98.90;;;;;;5094224;28;20028;-43
2024/01/24 03:38:19;;;;;;;2.53;0.60;;;9.30;99.00;;;;;;5094076;28;20460;-44
2024/01/24 03:40:44;;;;;;;1.85;0.60;;;9.30;99.00;;;;;;5094161;28;20386;-44
2024/01/24 03:43:11;;;;;;;1.58;0.63;;;9.20;99.00;;;;;;5092783;28;20034;-44
2024/01/24 03:45:37;;;;;;;0.95;0.50;;;9.20;99.00;;;;;;5094387;28;20024;-44
2024/01/24 03:48:04;;;;;;;1.38;0.70;;;9.20;99.00;;;;;;5095010;28;20530;-44
2024/01/24 03:50:29;;;;;;;2.15;0.68;;;9.20;99.00;;;;;;5093831;28;20475;-43
2024/01/24 03:52:55;;;;;;;1.20;0.60;;;9.30;99.00;;;;;;5093942;28;20025;-43
2024/01/24 03:55:21;;;;;;;1.90;0.63;;;9.20;99.00;;;;;;5094781;28;20056;-44
2024/01/24 03:57:46;;;;;;;2.28;0.75;;;9.20;99.00;;;;;;5094069;28;20496;-44
2024/01/24 04:00:12;;;;;;;2.33;0.70;;;9.20;99.00;;;;;;5093716;28;20441;-44
2024/01/24 04:02:40;;;;;;;1.63;0.50;;;9.20;99.10;;;;;;5095065;28;20024;-44
2024/01/24 04:05:06;;;;;;;2.50;0.80;;;9.20;99.10;;;;;;5093565;28;20031;-44
2024/01/24 04:07:32;;;;;;;2.25;0.63;;;9.20;99.10;;;;;;5093690;28;20028;-44
2024/01/24 04:09:58;;;;;;;0.98;0.55;;;9.20;99.10;;;;;;5093836;28;20390;-44
2024/01/24 04:12:24;;;;;;;0.93;0.40;;;9.20;99.10;;;;;;5093633;28;20100;-43
2024/01/24 04:14:50;;;;;;;1.10;0.70;;;9.20;99.10;;;;;;5093509;28;20115;-44
2024/01/24 04:17:16;;;;;;;2.05;0.73;;;9.20;99.10;;;;;;5093951;28;20024;-44
2024/01/24 04:19:41;;;;;;;1.58;0.45;;;9.20;99.10;;;;;;5094012;28;20104;-44
2024/01/24 04:22:08;;;;;;;2.38;0.80;;;9.20;99.10;;;;;;5093437;28;20155;-44
2024/01/24 04:24:34;;;;;;;1.45;0.50;;;9.20;99.20;;;;;;5093205;28;20042;-44
2024/01/24 04:27:00;;;;;;;2.83;0.85;;;9.20;99.20;;;;;;5093801;28;20098;-44
2024/01/24 04:29:26;;;;;;;1.70;0.60;;;9.20;99.20;;;;;;5093991;28;20079;-44
2024/01/24 04:31:51;;;;;;;0.90;0.70;;;9.20;99.20;;;;;;5094491;28;20019;-44
2024/01/24 04:34:17;;;;;;;2.92;0.70;;;9.20;99.20;;;;;;5093049;28;20062;-44
2024/01/24 04:36:46;;;;;;;1.70;0.73;;;9.20;99.20;;;;;;5093121;28;20028;-44
2024/01/24 04:39:12;;;;;;;0.98;0.52;;;9.20;99.20;;;;;;5093474;28;20056;-44
2024/01/24 04:41:37;;;;;;;3.05;0.50;;;9.20;99.20;;;;;;5093633;28;20035;-44
2024/01/24 04:44:04;;;;;;;2.30;0.70;;;9.20;99.30;;;;;;5092062;28;20075;-44
2024/01/24 04:46:30;;;;;;;1.83;0.75;;;9.20;99.30;;;;;;5092905;28;20031;-44
2024/01/24 04:48:56;;;;;;;1.27;0.63;;;9.20;99.30;;;;;;5093460;28;20024;-44
2024/01/24 04:51:24;;;;;;;1.65;0.70;;;9.20;99.30;;;;;;5093449;28;20485;-44
2024/01/24 04:53:50;;;;;;;1.05;0.50;;;9.20;99.30;;;;;;5092850;28;20026;-44
2024/01/24 04:56:16;;;;;;;1.20;0.55;;;9.20;99.30;;;;;;5092695;28;20529;-44
2024/01/24 04:58:42;;;;;;;1.52;0.52;;;9.20;99.30;;;;;;5093111;28;20099;-44
2024/01/24 05:01:07;;;;;;;1.60;0.70;;;9.20;99.30;;;;;;5092803;28;20039;-44
2024/01/24 05:03:33;;;;;;;2.03;0.65;;;9.20;99.30;;;;;;5093204;28;20222;-43
2024/01/24 05:05:58;;;;;;;2.17;0.55;;;9.20;99.40;;;;;;5092583;28;20040;-44
2024/01/24 05:08:24;;;;;;;1.10;0.70;;;9.20;99.40;;;;;;5092552;28;20027;-44
2024/01/24 05:10:50;;;;;;;1.58;0.73;;;9.20;99.40;;;;;;5093512;28;20568;-44
2024/01/24 05:13:16;;;;;;;1.88;0.55;;;9.20;99.40;;;;;;5092395;28;20016;-43
2024/01/24 05:15:41;;;;;;;1.40;0.60;;;9.20;99.40;;;;;;5092274;28;20347;-43
2024/01/24 05:18:07;;;;;;;2.72;0.90;;;9.20;99.40;;;;;;5092225;28;20032;-43
2024/01/24 05:20:33;;;;;;;1.13;0.65;;;9.20;99.40;;;;;;5092984;28;20036;-44
2024/01/24 05:22:59;;;;;;;2.33;0.70;;;9.20;99.40;;;;;;5093532;28;20081;-44
2024/01/24 05:25:24;;;;;;;1.52;0.60;;;9.20;99.50;;;;;;5093001;28;20105;-44
2024/01/24 05:27:50;;;;;;;1.10;0.60;;;9.20;99.50;;;;;;5092060;28;20031;-44
2024/01/24 05:30:15;;;;;;;1.08;0.70;;;9.10;99.40;;;;;;5091869;28;20102;-44
2024/01/24 05:32:41;;;;;;;2.10;0.60;;;9.20;99.50;;;;;;5092413;28;20091;-44
2024/01/24 05:35:08;;;;;;;3.08;0.70;;;9.20;99.50;;;;;;5092832;28;20457;-44
2024/01/24 05:37:33;;;;;;;1.15;0.40;;;9.10;99.50;;;;;;5092934;28;20057;-44
2024/01/24 05:39:59;;;;;;;1.67;0.60;;;9.20;99.50;;;;;;5091936;28;20032;-44
2024/01/24 05:42:25;;;;;;;1.25;0.63;;;9.10;99.50;;;;;;5091919;28;20036;-44
2024/01/24 05:44:50;;;;;;;2.28;0.85;;;9.20;99.50;;;;;;5091937;28;20035;-43
2024/01/24 05:47:16;;;;;;;3.30;1.63;;;9.10;99.40;;;;;;5092797;28;20032;-44
2024/01/24 05:49:41;;;;;;;4.00;2.30;;;9.10;99.60;;;;;;5091653;28;20477;-43
2024/01/24 05:52:07;;;;;;;5.63;2.92;;;9.20;99.70;;;;;;5093129;28;20052;-44
2024/01/24 05:54:33;;;;;;;4.82;2.95;;;9.20;99.90;;;;;;5091556;28;20023;-44
2024/01/24 05:56:59;;;;;;;6.03;3.10;;;9.20;99.90;;;;;;5091349;28;20020;-43
2024/01/24 05:59:25;;;;;;;3.85;2.70;;;9.20;99.90;;;;;;5091452;28;20024;-44
2024/01/24 06:01:51;;;;;;;4.85;3.10;;;9.30;99.90;;;;;;5091487;28;20032;-44
2024/01/24 06:04:16;;;;;;;6.28;2.70;;;9.30;99.90;;;;;;5093083;28;20102;-44
2024/01/24 06:06:42;;;;;;;4.07;2.63;;;9.30;99.90;;;;;;5092560;28;20032;-43
2024/01/24 06:09:08;;;;;;;3.85;2.50;;;9.30;99.90;;;;;;5091747;28;20020;-43
2024/01/24 06:11:33;;;;;;;3.17;2.50;;;9.30;99.90;;;;;;5091925;28;20069;-43
2024/01/24 06:13:59;;;;;;;3.28;2.60;;;9.20;99.90;;;;;;5091781;28;20026;-44
2024/01/24 06:16:24;;;;;;;5.63;2.70;;;9.20;99.90;;;;;;5092132;28;20277;-44
2024/01/24 06:18:50;;;;;;;4.57;2.95;;;9.30;99.90;;;;;;5092524;28;20021;-44
2024/01/24 06:21:16;;;;;;;3.72;2.67;;;9.30;99.90;;;;;;5091212;28;20075;-44
2024/01/24 06:23:41;;;;;;;3.95;2.40;;;9.30;99.90;;;;;;5091274;28;20035;-44
2024/01/24 06:26:07;;;;;;;3.05;2.30;;;9.20;99.90;;;;;;5092352;28;20092;-44
2024/01/24 06:28:33;;;;;;;2.83;2.20;;;9.20;99.90;;;;;;5092298;28;20020;-44
2024/01/24 06:30:59;;;;;;;4.22;2.28;;;9.20;99.90;;;;;;5091213;28;20123;-44
2024/01/24 06:33:25;;;;;;;3.75;2.30;;;9.20;99.90;;;;;;5091235;28;20471;-44
2024/01/24 06:35:51;;;;;;;5.95;2.42;;;9.20;99.90;;;;;;5089959;28;20419;-43
2024/01/24 06:38:16;;;;;;;3.28;2.30;;;9.20;99.90;;;;;;5091079;28;20069;-44
2024/01/24 06:40:42;;;;;;;2.97;2.10;;;9.20;99.90;;;;;;5091302;28;20039;-44
2024/01/24 06:43:08;;;;;;;4.00;2.10;;;9.20;99.90;;;;;;5092192;28;20464;-44
2024/01/24 06:45:33;;;;;;;4.43;2.10;;;9.20;99.90;;;;;;5091171;28;20023;-44
2024/01/24 06:47:59;;;;;;;3.05;2.05;;;9.20;99.90;;;;;;5091093;28;20103;-44
2024/01/24 06:50:27;;;;;;;2.88;2.08;;;9.20;99.90;;;;;;5092143;28;20062;-44
2024/01/24 06:52:52;;;;;;;2.67;2.08;;;9.20;99.90;;;;;;5091628;28;20020;-44
2024/01/24 06:55:18;;;;;;;2.95;1.95;;;9.20;99.90;;;;;;5091099;28;20043;-43
2024/01/24 06:57:44;;;;;;;3.80;2.10;;;9.20;99.90;;;;;;5091011;28;20020;-43
2024/01/24 07:00:10;;;;;;;3.67;2.10;;;9.20;99.90;;;;;;5091347;28;20107;-43
2024/01/24 07:02:36;;;;;;;2.35;1.73;;;9.20;99.90;;;;;;5091602;28;20066;-44
2024/01/24 07:05:05;;;;;;;4.07;1.80;;;9.20;99.90;;;;;;5090912;28;20449;-44
2024/01/24 07:07:31;;;;;;;2.20;1.67;;;9.20;99.90;;;;;;5092035;28;20088;-44
2024/01/24 07:09:57;;;;;;;2.70;1.85;;;9.20;99.90;;;;;;5094623;28;20073;-43
2024/01/24 07:12:22;;;;;;;2.97;1.70;;;9.20;99.90;;;;;;5094775;28;20024;-45
2024/01/24 07:14:48;;;;;;;2.65;1.70;;;9.20;99.90;;;;;;5094902;28;20020;-44
2024/01/24 07:17:14;;;;;;;2.63;1.52;;;9.20;99.90;;;;;;5094713;28;20036;-44
2024/01/24 07:19:40;;;;;;;2.30;1.77;;;9.20;99.90;;;;;;5095249;28;20028;-44
2024/01/24 07:22:06;;;;;;;2.58;1.75;;;9.20;99.90;;;;;;5096531;28;20019;-43
2024/01/24 07:24:32;;;;;;;2.20;1.65;;;9.20;99.90;;;;;;5095437;28;20389;-43
2024/01/24 07:26:58;;;;;;;2.65;1.70;;;9.20;99.90;;;;;;5095651;28;20028;-44
2024/01/24 07:29:23;;;;;;;1.80;1.45;;;9.20;99.90;;;;;;5094981;28;20028;-43
2024/01/24 07:31:49;;;;;;;3.28;1.35;;;9.20;99.90;;;;;;5094406;28;20020;-44
2024/01/24 07:34:17;;;;;;;1.85;1.48;;;9.30;99.90;;;;;;5095071;28;20031;-43
2024/01/24 07:36:43;;;;;;;2.72;1.73;;;9.30;99.90;;;;;;5095584;28;20016;-44
2024/01/24 07:39:09;;;;;;;2.45;1.45;;;9.30;99.90;;;;;;5094471;28;20118;-44
2024/01/24 07:41:34;;;;;;;2.63;1.55;;;9.30;99.90;;;;;;5095244;28;20039;-43
2024/01/24 07:44:00;;;;;;;2.05;1.60;;;9.30;99.90;;;;;;5095417;28;20031;-43
2024/01/24 07:46:27;;;;;;;2.60;1.52;;;9.40;99.90;;;;;;5094428;28;20069;-45
2024/01/24 07:48:53;;;;;;;1.88;1.20;;;9.40;99.90;;;;;;5094494;28;20099;-44
2024/01/24 07:51:20;;;;;;;1.77;1.40;;;9.50;99.90;;;;;;5093977;28;20020;-44
2024/01/24 07:53:47;;;;;;;1.42;1.20;;;9.50;99.90;;;;;;5093965;28;20031;-44
2024/01/24 07:56:13;;;;;;;2.53;1.40;;;9.60;99.90;;;;;;5093915;28;20020;-44
2024/01/24 07:58:40;;;;;;;1.77;1.17;;;9.60;99.90;;;;;;5093643;28;20027;-44
2024/01/24 08:01:08;;;;;;;2.47;1.27;;;9.60;99.90;;;;;;5094098;28;20370;-44
2024/01/24 08:03:33;;;;;;;2.58;1.23;;;9.70;99.90;;;;;;5094563;28;20071;-43
2024/01/24 08:05:59;;;;;;;1.40;1.20;;;9.80;99.90;;;;;;5093723;28;20113;-44
2024/01/24 08:08:26;;;;;;;2.30;1.20;;;9.80;99.90;;;;;;5093765;28;20031;-43
2024/01/24 08:10:52;;;;;;;1.73;1.23;;;9.90;99.90;;;;;;5093669;28;20024;-44
2024/01/24 08:13:18;;;;;;;2.65;1.10;;;10.00;99.90;;;;;;5093828;28;20389;-44
2024/01/24 08:15:46;;;;;;;1.50;1.02;;;10.00;99.90;;;;;;5094277;28;20020;-44
2024/01/24 08:18:12;;;;;;;1.63;1.27;;;10.10;99.90;;;;;;5093129;28;20024;-44
2024/01/24 08:20:38;;;;;;;1.73;1.15;;;10.10;99.90;;;;;;5093827;28;20154;-44
2024/01/24 08:23:03;;;;;;;1.63;1.13;;;10.20;99.90;;;;;;5093423;28;20032;-44
2024/01/24 08:25:29;;;;;;;1.95;1.20;;;10.20;99.90;;;;;;5093323;28;20040;-44
2024/01/24 08:27:54;;;;;;;2.00;1.10;;;10.30;99.90;;;;;;5093023;28;20028;-44
2024/01/24 08:30:20;;;;;;;1.50;1.00;;;10.30;99.90;;;;;;5093101;28;20170;-45
2024/01/24 08:32:46;;;;;;;1.58;0.80;;;10.30;99.90;;;;;;5093261;28;20058;-43
2024/01/24 08:35:12;;;;;;;0.75;0.50;;;10.30;99.90;;;;;;5093160;28;20030;-44
2024/01/24 08:37:38;;;;;;;0.85;0.40;;;10.30;99.90;;;;;;5093339;28;20429;-45
2024/01/24 08:40:05;;;;;;;1.35;0.38;;;10.30;99.90;;;;;;5093666;28;20028;-43
2024/01/24 08:42:31;;;;;;;0.43;0.30;;;10.40;99.90;;;;;;5093803;28;20106;-44
2024/01/24 08:44:58;;;;;;;0.40;0.25;;;10.40;99.90;;;;;;5093400;28;20056;-45
2024/01/24 08:47:23;;;;;;;0.50;0.30;;;10.50;99.90;;;;;;5093728;28;20036;-43
2024/01/24 08:49:50;;;;;;;0.82;0.30;;;10.60;99.90;;;;;;5093867;28;20028;-44
2024/01/24 08:52:16;;;;;;;0.60;0.30;;;10.60;99.90;;;;;;5092913;28;20386;-45
2024/01/24 08:54:44;;;;;;;0.77;0.35;;;10.70;99.90;;;;;;5092800;28;20035;-43
2024/01/24 08:57:10;;;;;;;0.50;0.30;;;10.80;99.90;;;;;;5093188;28;20055;-43
2024/01/24 08:59:38;;;;;;;0.95;0.35;;;10.80;99.90;;;;;;5092673;28;20482;-45
2024/01/24 09:02:04;;;;;;;1.42;0.30;;;10.90;99.90;;;;;;5093198;28;20081;-45
2024/01/24 09:04:30;;;;;;;0.22;0.22;;;11.00;99.90;;;;;;5092978;28;20024;-43
2024/01/24 09:06:56;;;;;;;0.45;0.32;;;11.10;99.90;;;;;;5093432;28;20038;-43
2024/01/24 09:09:22;;;;;;;1.02;0.50;;;11.10;99.90;;;;;;5092790;28;20048;-44
2024/01/24 09:11:48;;;;;;;0.60;0.30;;;11.20;99.90;;;;;;5092539;28;20462;-43
2024/01/24 09:14:14;;;;;;;1.10;0.47;;;11.30;99.90;;;;;;5092783;28;20051;-45
2024/01/24 09:16:39;;;;;;;0.47;0.40;;;11.30;99.90;;;;;;5092798;28;20048;-45
2024/01/24 09:19:05;;;;;;;1.23;0.47;;;11.40;99.90;;;;;;5093224;28;20221;-43
2024/01/24 09:21:30;;;;;;;0.73;0.40;;;11.50;99.90;;;;;;5093657;28;20020;-45
2024/01/24 09:23:56;;;;;;;0.98;0.32;;;11.60;99.90;;;;;;5092203;28;20094;-44
2024/01/24 09:26:22;;;;;;;0.47;0.20;;;11.60;99.80;;;;;;5091538;28;20131;-43
2024/01/24 09:28:47;;;;;;;2.22;0.30;;;11.80;99.70;;;;;;5093029;28;20041;-45
2024/01/24 09:31:13;;;;;;;1.08;0.40;;;11.80;99.60;;;;;;5091481;28;20028;-45
2024/01/24 09:33:39;;;;;;;0.43;0.30;;;11.90;99.50;;;;;;5092060;28;20385;-45
2024/01/24 09:36:05;;;;;;;0.43;0.30;;;12.00;99.40;;;;;;5093766;28;20026;-43
2024/01/24 09:38:30;;;;;;;0.38;0.22;;;12.00;99.30;;;;;;5092760;28;20370;-42
2024/01/24 09:41:00;;;;;;;0.77;0.25;;;12.10;99.20;;;;;;5091879;28;20039;-44
2024/01/24 09:43:29;;;;;;;0.20;0.10;;;12.20;99.10;;;;;;5092614;28;20032;-43
2024/01/24 09:45:56;;;;;;;1.65;0.32;;;12.20;99.00;;;;;;5092050;28;20055;-45
2024/01/24 09:48:23;;;;;;;1.17;0.40;;;12.30;98.90;;;;;;5092183;28;20024;-45
2024/01/24 09:50:48;;;;;;;0.40;0.30;;;12.40;98.80;;;;;;5091807;28;20052;-45
2024/01/24 09:53:19;;;;;;;0.32;0.28;;;12.50;98.70;;;;;;5091572;28;20060;-44
2024/01/24 09:55:46;;;;;;;0.80;0.32;;;12.50;98.50;;;;;;5092592;28;20024;-44
2024/01/24 09:58:11;;;;;;;0.50;0.38;;;12.60;98.40;;;;;;5092802;28;20463;-44
2024/01/24 10:00:37;;;;;;;0.38;0.30;;;12.70;98.30;;;;;;5092068;28;20032;-44
2024/01/24 10:03:04;;;;;;;0.65;0.28;;;12.70;98.20;;;;;;5092489;28;20078;-44
2024/01/24 10:05:31;;;;;;;0.40;0.20;;;12.80;98.10;;;;;;5093339;28;20028;-45
2024/01/24 10:07:57;;;;;;;0.30;0.20;;;12.80;98.00;;;;;;5092040;28;20078;-45
2024/01/24 10:10:23;;;;;;;0.22;0.20;;;12.90;98.20;;;;;;5092278;28;20481;-45
2024/01/24 10:12:50;;;;;;;0.10;0.10;;;13.00;97.80;;;;;;5092588;28;20020;-45
2024/01/24 10:15:15;;;;;;;0.52;0.20;;;13.00;97.70;;;;;;5092240;28;20499;-45
2024/01/24 10:17:42;;;;;;;0.28;0.20;;;13.10;97.70;;;;;;5091910;28;20101;-45
2024/01/24 10:20:14;;;;;;;0.20;0.10;;;13.20;97.60;;;;;;5091715;28;20028;-45
2024/01/24 10:22:42;;;;;;;1.05;0.30;;;13.20;97.40;;;;;;5092270;28;20043;-44
2024/01/24 10:25:10;;;;;;;0.30;0.30;;;13.30;97.70;;;;;;5091975;28;20102;-44
2024/01/24 10:27:38;;;;;;;0.30;0.15;;;13.30;97.30;;;;;;5092212;28;20422;-43
2024/01/24 10:30:10;;;;;;;0.20;0.20;;;13.40;97.10;;;;;;5091571;28;20120;-43
2024/01/24 10:32:37;;;;;;;0.30;0.20;;;13.40;97.10;;;;;;5091422;28;20056;-44
2024/01/24 10:35:06;;;;;;;0.60;0.20;;;13.40;97.00;;;;;;5091886;28;20017;-43
2024/01/24 10:37:32;;;;;;;0.47;0.25;;;13.50;96.90;;;;;;5092197;28;20031;-45
2024/01/24 10:40:05;;;;;;;0.75;0.22;;;13.50;96.80;;;;;;5091521;28;20408;-45
2024/01/24 10:42:39;;;;;;;0.47;0.30;;;13.60;96.80;;;;;;5094092;28;20057;-44
2024/01/24 10:45:06;;;;;;;0.40;0.20;;;13.60;96.70;;;;;;5095538;28;20027;-45
2024/01/24 10:47:33;;;;;;;0.10;0.10;;;13.70;96.70;;;;;;5096800;28;20089;-44
2024/01/24 10:50:03;;;;;;;0.30;0.17;;;13.80;96.60;;;;;;5095765;28;20023;-44
2024/01/24 10:52:30;;;;;;;0.43;0.20;;;13.80;96.50;;;;;;5095993;28;20016;-44
2024/01/24 10:55:02;;;;;;;0.15;0.15;;;13.80;96.40;;;;;;5095504;28;20539;-45
2024/01/24 10:57:28;;;;;;;0.63;0.20;;;13.80;96.30;;;;;;5095564;28;20043;-45
2024/01/24 10:59:56;;;;;;;0.32;0.30;;;13.90;96.30;;;;;;5095156;28;20020;-45
2024/01/24 11:02:22;;;;;;;0.28;0.20;;;14.00;96.20;;;;;;5095370;28;20683;-44
2024/01/24 11:04:50;;;;;;;0.55;0.30;;;14.00;96.10;;;;;;5096161;28;20028;-43
2024/01/24 11:07:27;;;;;;;0.10;0.10;;;14.00;96.00;;;;;;5095137;28;20099;-44
2024/01/24 11:10:21;;;;;;;0.75;0.20;;;14.10;96.00;;;;;;5094672;28;20427;-45
2024/01/24 11:12:48;;;;;;;0.30;0.20;;;14.10;95.90;;;;;;5094294;28;20040;-45
2024/01/24 11:15:13;;;;;;;0.20;0.10;;;14.10;95.90;;;;;;5094693;28;20543;-43
2024/01/24 11:17:41;;;;;;;0.13;0.10;;;14.20;95.80;;;;;;5096076;28;20028;-43
2024/01/24 11:20:09;;;;;;;0.50;0.20;;;14.20;95.70;;;;;;5094659;28;20053;-45
2024/01/24 11:22:35;;;;;;;0.20;0.17;;;14.20;95.70;;;;;;5094645;28;20024;-45
2024/01/24 11:25:00;;;;;;;0.65;0.30;;;14.30;95.70;;;;;;5095255;28;20062;-44
2024/01/24 11:27:34;;;;;;;0.75;0.30;;;14.30;95.60;;;;;;5095996;28;20035;-44
2024/01/24 11:30:08;;;;;;;0.15;0.15;;;14.30;95.60;;;;;;5094997;28;20385;-43
2024/01/24 11:32:46;;;;;;;0.30;0.22;;;14.30;95.50;;;;;;5094432;28;20101;-45
2024/01/24 11:35:27;;;;;;;0.32;0.20;;;14.40;95.40;;;;;;5094640;28;20020;-45
2024/01/24 11:37:59;;;;;;;0.15;0.13;;;14.40;95.40;;;;;;5094154;28;20425;-45
2024/01/24 11:40:25;;;;;;;0.22;0.15;;;14.50;95.40;;;;;;5094619;28;20017;-44
2024/01/24 11:42:57;;;;;;;0.32;0.22;;;14.50;95.30;;;;;;5094246;28;20026;-44
2024/01/24 11:45:24;;;;;;;0.17;0.17;;;14.50;95.20;;;;;;5095033;28;20027;-45
2024/01/24 11:47:51;;;;;;;0.50;0.30;;;14.50;95.20;;;;;;5095566;28;20024;-45
2024/01/24 11:50:19;;;;;;;0.40;0.20;;;14.60;95.20;;;;;;5094584;28;20127;-44
2024/01/24 11:52:45;;;;;;;0.10;0.10;;;14.50;95.10;;;;;;5093602;28;20482;-45
2024/01/24 11:55:12;;;;;;;0.20;0.20;;;14.60;95.10;;;;;;5093725;28;20028;-43
2024/01/24 11:57:38;;;;;;;0.30;0.20;;;14.60;95.00;;;;;;5093889;28;20024;-44
2024/01/24 12:00:08;;;;;;;0.20;0.20;;;14.60;95.00;;;;;;5095142;28;20026;-44
2024/01/24 12:02:35;;;;;;;0.28;0.20;;;14.70;95.00;;;;;;5094321;28;20122;-44
2024/01/24 12:05:00;;;;;;;0.43;0.30;;;14.70;95.30;;;;;;5094252;28;20028;-45
2024/01/24 12:07:27;;;;;;;0.32;0.17;;;14.70;94.90;;;;;;5094383;28;20389;-45
2024/01/24 12:09:53;;;;;;;0.43;0.20;;;14.70;95.20;;;;;;5094420;28;20477;-45
2024/01/24 12:12:20;;;;;;;0.13;0.10;;;14.70;94.90;;;;;;5095005;28;20024;-43
2024/01/24 12:14:46;;;;;;;0.60;0.30;;;14.70;94.80;;;;;;5094079;28;20508;-44
2024/01/24 12:17:11;;;;;;;0.55;0.20;;;14.70;94.90;;;;;;5094437;28;20064;-44
2024/01/24 12:19:41;;;;;;;0.15;0.10;;;14.70;94.80;;;;;;5093701;28;20056;-45
2024/01/24 12:22:09;;;;;;;0.22;0.15;;;14.70;94.80;;;;;;5092088;28;20456;-45
2024/01/24 12:24:42;;;;;;;0.40;0.30;;;14.80;94.80;;;;;;5093788;28;20505;-45
2024/01/24 12:27:09;;;;;;;0.45;0.20;;;14.80;94.80;;;;;;5094359;28;20069;-45
2024/01/24 12:29:35;;;;;;;0.25;0.20;;;14.70;94.70;;;;;;5093812;28;20024;-44
2024/01/24 12:32:03;;;;;;;0.40;0.28;;;14.80;94.70;;;;;;5093537;28;20016;-45
2024/01/24 12:34:32;;;;;;;1.08;0.32;;;14.80;94.60;;;;;;5093864;28;20020;-44
2024/01/24 12:37:00;;;;;;;0.38;0.30;;;14.80;94.60;;;;;;5093147;28;20028;-44
2024/01/24 12:39:30;;;;;;;0.55;0.30;;;14.80;94.60;;;;;;5093085;28;20161;-45
2024/01/24 12:41:56;;;;;;;0.73;0.30;;;14.80;94.60;;;;;;5093700;28;20103;-41
2024/01/24 12:44:21;;;;;;;0.50;0.35;;;14.80;94.50;;;;;;5093567;28;20113;-43
2024/01/24 12:46:55;;;;;;;1.77;0.60;;;14.80;94.50;;;;;;5092937;28;20024;-45
2024/01/24 12:49:21;;;;;;;0.82;0.50;;;14.90;94.50;;;;;;5092948;28;20031;-45